Decoded Metar for KLUM (MENOMONIE MUNI in WI, USA) (IATA:LUM) | Meteo·Mobile Aviation Weather
aviador You're here:

KLUM Decoded Metar

MENOMONIE MUNI in WI, USA
Report Time2018-12-16 10:35:00
UTC Time2018-12-16 10:48:03
Flight Rules vfr VFR
WindCalm
Visibility9999 m
Phenomena:N/A
Clouds:N/A
Expected CloudBase > 1,600 ft AGL from Temp-Dew spread
CeilingNone
Temp-3°C (ISA -16)
Dew Point-7°C (74% RH)
AAT-5.8°C
QNH1017 hPa
Density Alt-1,178 ft
Elevation896 ft
Report Wrong Elevation
Raw Report
KLUM 161035Z AUTO 00000KT 10SM CLR M03/M07 A3003 RMK AO2
T10351072=

Extra information for KLUM:More info

Metar Taf Metar & Taf Last 4 Metars F.Rules Stats Wind Profile Meteogram Temp Stats Airport Information Weather charts Add Link Nearby VenuesMetar ALERT Operation Metar Decoded Social comments

AIRNAV info for KLUM